Time;durP1;ratioP1;P1;durP2;ratioP2;P2;SDS_P1;SDS_P2;PMS_P1;PMS_P2;Temp;Humidity;BMP_temperature;BMP_pressure;BME280_temperature;BME280_humidity;BME280_pressure;Samples;Min_cycle;Max_cycle;Signal;HPM_P1;HPM_P2
2022/08/04 00:00:15;;;;;;;3.40;1.90;;;;;;;;;;5051946;28;20060;-72
2022/08/04 00:02:42;;;;;;;2.85;2.20;;;;;;;;;;5051397;28;20427;-71
2022/08/04 00:05:35;;;;;;;2.25;1.70;;;;;;;;;;5051982;28;20131;-72
2022/08/04 00:08:23;;;;;;;2.88;2.10;;;;;;;;;;5036441;28;20067;-72
2022/08/04 00:10:54;;;;;;;3.63;1.88;;;;;;;;;;5051893;28;20056;-72
2022/08/04 00:13:25;;;;;;;4.10;2.05;;;;;;;;;;5051711;28;20523;-72
2022/08/04 00:15:57;;;;;;;4.30;1.60;;;;;;;;;;5052019;28;20052;-71
2022/08/04 00:18:32;;;;;;;2.42;2.08;;;;;;;;;;5066329;28;20053;-72
2022/08/04 00:20:59;;;;;;;3.53;2.13;;;;;;;;;;5018192;28;20059;-70
2022/08/04 00:23:27;;;;;;;2.22;1.75;;;;;;;;;;5034130;28;20057;-71
2022/08/04 00:26:15;;;;;;;3.65;1.80;;;;;;;;;;5036488;28;20052;-71
2022/08/04 00:28:41;;;;;;;2.50;2.30;;;;;;;;;;5051667;28;20049;-71
2022/08/04 00:31:11;;;;;;;3.03;2.03;;;;;;;;;;5051555;28;20056;-71
2022/08/04 00:33:45;;;;;;;4.05;2.13;;;;;;;;;;5018598;28;20103;-70
2022/08/04 00:36:12;;;;;;;1.50;1.40;;;;;;;;;;5051674;28;20049;-71
2022/08/04 00:38:43;;;;;;;2.53;1.90;;;;;;;;;;5051631;28;20055;-72
2022/08/04 00:41:21;;;;;;;2.05;1.80;;;;;;;;;;5051486;28;20049;-71
2022/08/04 00:44:12;;;;;;;2.20;2.00;;;;;;;;;;5019682;28;20050;-70
2022/08/04 00:47:26;;;;;;;2.42;2.00;;;;;;;;;;5031991;28;20425;-70
2022/08/04 00:50:42;;;;;;;1.83;1.73;;;;;;;;;;5018858;28;20054;-70
2022/08/04 00:53:47;;;;;;;3.90;1.85;;;;;;;;;;4954523;29;20047;-71
2022/08/04 00:56:29;;;;;;;1.67;1.58;;;;;;;;;;4951217;28;20206;-71
2022/08/04 00:59:19;;;;;;;3.42;1.67;;;;;;;;;;5025143;28;20049;-70
2022/08/04 01:01:59;;;;;;;2.47;2.00;;;;;;;;;;5053127;28;20057;-70
2022/08/04 01:04:44;;;;;;;1.80;1.67;;;;;;;;;;5054799;28;20045;-71
2022/08/04 01:07:20;;;;;;;2.63;1.80;;;;;;;;;;5068558;28;20052;-71
2022/08/04 01:10:06;;;;;;;2.08;1.60;;;;;;;;;;5069007;28;20049;-71
2022/08/04 01:12:48;;;;;;;1.55;1.45;;;;;;;;;;5054753;28;20053;-70
2022/08/04 01:15:28;;;;;;;2.00;1.70;;;;;;;;;;5054974;28;20419;-70
2022/08/04 01:17:59;;;;;;;2.70;1.90;;;;;;;;;;5052021;28;20492;-70
2022/08/04 01:20:29;;;;;;;1.58;1.48;;;;;;;;;;5069998;28;20053;-70
2022/08/04 01:22:58;;;;;;;1.52;1.38;;;;;;;;;;5036802;28;20048;-72
2022/08/04 01:25:43;;;;;;;3.50;1.73;;;;;;;;;;5054101;28;20139;-70
2022/08/04 01:28:23;;;;;;;4.93;1.85;;;;;;;;;;5034436;28;20045;-72
2022/08/04 01:30:54;;;;;;;3.72;2.05;;;;;;;;;;5017024;28;20514;-71
2022/08/04 01:33:21;;;;;;;1.98;1.65;;;;;;;;;;5000816;28;20046;-71
2022/08/04 01:35:54;;;;;;;2.00;1.80;;;;;;;;;;5016580;28;20064;-71
2022/08/04 01:38:28;;;;;;;1.83;1.73;;;;;;;;;;5000957;28;20581;-71
2022/08/04 01:41:14;;;;;;;2.30;2.10;;;;;;;;;;5050073;28;20060;-71
2022/08/04 01:43:43;;;;;;;2.90;1.73;;;;;;;;;;5036623;28;20049;-71
2022/08/04 01:46:14;;;;;;;3.10;1.95;;;;;;;;;;5053920;28;20053;-71
2022/08/04 01:48:46;;;;;;;2.45;1.85;;;;;;;;;;5054133;28;20475;-71
2022/08/04 01:51:13;;;;;;;2.95;1.90;;;;;;;;;;5053568;28;20057;-72
2022/08/04 01:53:41;;;;;;;3.30;1.80;;;;;;;;;;5054094;28;20045;-71
2022/08/04 01:56:09;;;;;;;3.55;1.95;;;;;;;;;;5053777;28;20534;-71
2022/08/04 01:58:37;;;;;;;4.80;1.63;;;;;;;;;;5053324;28;20052;-72
2022/08/04 02:01:06;;;;;;;2.65;1.88;;;;;;;;;;5053900;28;20072;-72
2022/08/04 02:03:36;;;;;;;5.93;1.92;;;;;;;;;;5053879;28;20416;-72
2022/08/04 02:06:49;;;;;;;4.13;2.05;;;;;;;;;;5053697;28;20060;-72
2022/08/04 02:09:22;;;;;;;3.85;1.73;;;;;;;;;;5037151;28;20060;-71
2022/08/04 02:12:26;;;;;;;3.45;1.80;;;;;;;;;;5036675;28;20492;-72
2022/08/04 02:14:56;;;;;;;1.80;1.70;;;;;;;;;;5034082;28;20110;-72
2022/08/04 02:17:42;;;;;;;2.67;1.73;;;;;;;;;;5035280;28;20132;-72
2022/08/04 02:20:11;;;;;;;3.45;1.90;;;;;;;;;;5052786;28;20119;-72
2022/08/04 02:22:45;;;;;;;1.98;1.70;;;;;;;;;;5035661;28;20080;-72
2022/08/04 02:25:11;;;;;;;1.55;1.45;;;;;;;;;;5019301;28;20048;-72
2022/08/04 02:27:55;;;;;;;1.85;1.75;;;;;;;;;;5019361;28;20102;-72
2022/08/04 02:30:31;;;;;;;3.05;2.33;;;;;;;;;;5052921;28;20136;-72
2022/08/04 02:32:59;;;;;;;2.15;1.52;;;;;;;;;;5052834;28;20049;-71
2022/08/04 02:35:26;;;;;;;2.20;1.88;;;;;;;;;;5019175;28;20057;-71
2022/08/04 02:38:00;;;;;;;3.92;2.28;;;;;;;;;;5052810;28;20049;-72
2022/08/04 02:40:27;;;;;;;3.70;1.98;;;;;;;;;;5019441;28;21248;-72
2022/08/04 02:42:53;;;;;;;2.90;1.45;;;;;;;;;;5052009;28;20044;-72
2022/08/04 02:45:20;;;;;;;3.40;1.83;;;;;;;;;;5018896;28;20053;-71
2022/08/04 02:47:47;;;;;;;1.70;1.60;;;;;;;;;;5018741;28;20504;-72
2022/08/04 02:50:34;;;;;;;2.83;2.00;;;;;;;;;;5037750;28;20048;-72
2022/08/04 02:53:02;;;;;;;1.48;1.38;;;;;;;;;;5052721;28;20049;-72
2022/08/04 02:55:35;;;;;;;2.97;1.98;;;;;;;;;;5052813;28;20088;-72
2022/08/04 02:58:03;;;;;;;3.13;1.60;;;;;;;;;;5034891;28;20049;-72
2022/08/04 03:00:30;;;;;;;1.80;1.48;;;;;;;;;;5052773;28;20048;-72
2022/08/04 03:03:06;;;;;;;1.90;1.80;;;;;;;;;;5035134;28;20057;-72
2022/08/04 03:05:47;;;;;;;2.47;2.03;;;;;;;;;;5052576;28;20060;-69
2022/08/04 03:08:54;;;;;;;2.67;1.95;;;;;;;;;;5059352;28;20057;-71
2022/08/04 03:12:00;;;;;;;2.53;1.80;;;;;;;;;;5056634;28;20053;-69
2022/08/04 03:14:46;;;;;;;2.78;1.80;;;;;;;;;;5019134;28;20102;-71
2022/08/04 03:17:47;;;;;;;2.88;1.67;;;;;;;;;;5021422;28;20056;-71
2022/08/04 03:20:37;;;;;;;2.88;2.17;;;;;;;;;;5053253;28;20500;-71
2022/08/04 03:23:33;;;;;;;2.85;1.80;;;;;;;;;;5053027;28;20095;-71
2022/08/04 03:26:12;;;;;;;2.28;1.83;;;;;;;;;;5065302;28;20060;-72
2022/08/04 03:28:53;;;;;;;2.47;1.70;;;;;;;;;;5053178;28;20075;-72
2022/08/04 03:31:35;;;;;;;2.70;1.67;;;;;;;;;;5052105;28;20049;-71
2022/08/04 03:34:10;;;;;;;2.40;1.90;;;;;;;;;;5052044;28;20516;-72
2022/08/04 03:36:54;;;;;;;3.13;1.85;;;;;;;;;;5052102;28;20538;-72
2022/08/04 03:39:27;;;;;;;2.88;1.70;;;;;;;;;;5019759;28;20045;-72
2022/08/04 03:42:32;;;;;;;3.00;1.80;;;;;;;;;;5067703;28;20064;-72
2022/08/04 03:44:58;;;;;;;3.22;1.73;;;;;;;;;;5051594;28;20052;-73
2022/08/04 03:47:51;;;;;;;3.97;2.08;;;;;;;;;;5052267;28;20056;-72
2022/08/04 03:50:40;;;;;;;2.03;1.83;;;;;;;;;;5067398;28;20128;-72
2022/08/04 03:53:42;;;;;;;5.20;2.08;;;;;;;;;;5036867;28;20072;-72
2022/08/04 03:56:18;;;;;;;2.30;1.95;;;;;;;;;;5037032;28;20427;-73
2022/08/04 03:59:02;;;;;;;2.65;2.15;;;;;;;;;;5051928;28;20420;-72
2022/08/04 04:02:06;;;;;;;3.08;1.92;;;;;;;;;;5034279;28;20056;-71
2022/08/04 04:05:27;;;;;;;4.22;2.22;;;;;;;;;;5052125;28;20053;-73
2022/08/04 04:08:17;;;;;;;4.63;2.43;;;;;;;;;;4971293;28;20058;-72
2022/08/04 04:11:05;;;;;;;2.70;1.80;;;;;;;;;;5048645;28;20045;-72
2022/08/04 04:17:43;;;;;;;2.80;1.83;;;;;;;;;;5052289;28;20102;-73
2022/08/04 04:20:32;;;;;;;2.20;1.85;;;;;;;;;;5051706;28;20076;-73
2022/08/04 04:23:27;;;;;;;2.25;2.05;;;;;;;;;;5052325;28;20056;-73
2022/08/04 04:26:03;;;;;;;4.47;2.20;;;;;;;;;;5068311;28;20057;-73
2022/08/04 04:29:05;;;;;;;3.72;2.38;;;;;;;;;;5070304;28;20053;-72
2022/08/04 04:31:50;;;;;;;2.13;1.92;;;;;;;;;;5055305;28;20447;-73
2022/08/04 04:34:46;;;;;;;5.20;2.45;;;;;;;;;;5055315;28;20045;-73
2022/08/04 04:37:19;;;;;;;4.57;2.10;;;;;;;;;;5053633;28;20103;-73
2022/08/04 04:40:17;;;;;;;3.22;2.30;;;;;;;;;;5055405;28;20057;-73
2022/08/04 04:43:01;;;;;;;6.15;2.70;;;;;;;;;;5040524;28;20427;-73
2022/08/04 04:45:46;;;;;;;7.53;3.83;;;;;;;;;;5055581;28;20060;-73
2022/08/04 04:48:36;;;;;;;4.38;3.03;;;;;;;;;;5037884;28;20052;-73
2022/08/04 04:51:24;;;;;;;6.95;3.67;;;;;;;;;;5038678;28;20045;-73
2022/08/04 04:54:07;;;;;;;5.25;3.25;;;;;;;;;;5055403;28;20048;-73
2022/08/04 04:56:54;;;;;;;5.13;3.40;;;;;;;;;;5071474;28;20061;-73
2022/08/04 04:59:22;;;;;;;5.57;3.20;;;;;;;;;;5068511;28;20052;-73
2022/08/04 05:02:05;;;;;;;5.90;3.20;;;;;;;;;;5054338;28;20049;-73
2022/08/04 05:04:50;;;;;;;2.75;2.53;;;;;;;;;;5070263;28;20052;-72
2022/08/04 05:08:04;;;;;;;4.70;2.78;;;;;;;;;;5054719;28;20423;-72
2022/08/04 05:11:02;;;;;;;4.07;2.58;;;;;;;;;;4935022;29;20087;-72
2022/08/04 05:13:36;;;;;;;5.65;2.30;;;;;;;;;;5054320;28;20051;-72
2022/08/04 05:16:29;;;;;;;4.47;2.55;;;;;;;;;;5054340;28;20049;-72
2022/08/04 05:19:10;;;;;;;;;;;;;;;;;;5037159;28;20056;-73
2022/08/04 05:22:02;;;;;;;4.38;2.20;;;;;;;;;;5053937;28;19924;-72
2022/08/04 05:24:30;;;;;;;4.28;2.42;;;;;;;;;;5054312;28;20056;-72
2022/08/04 05:27:03;;;;;;;4.63;2.30;;;;;;;;;;5053183;28;20049;-72
2022/08/04 05:29:37;;;;;;;3.90;2.47;;;;;;;;;;5036659;28;20415;-72
2022/08/04 05:32:09;;;;;;;8.15;2.40;;;;;;;;;;5054207;28;20049;-71
2022/08/04 05:34:42;;;;;;;6.13;2.10;;;;;;;;;;5036050;28;20170;-73
2022/08/04 05:37:15;;;;;;;3.72;1.88;;;;;;;;;;5020751;28;20041;-72
2022/08/04 05:39:44;;;;;;;4.00;2.13;;;;;;;;;;5036145;28;20049;-72
2022/08/04 05:42:12;;;;;;;3.53;2.05;;;;;;;;;;5069020;28;20121;-70
2022/08/04 05:44:39;;;;;;;6.38;2.63;;;;;;;;;;5019883;28;20045;-71
2022/08/04 05:47:06;;;;;;;5.25;2.25;;;;;;;;;;5019981;28;20060;-71
2022/08/04 05:49:33;;;;;;;3.63;2.20;;;;;;;;;;5019406;28;20048;-71
2022/08/04 05:52:00;;;;;;;5.75;2.47;;;;;;;;;;5035943;28;20107;-72
2022/08/04 05:54:29;;;;;;;3.70;1.95;;;;;;;;;;5019637;28;20049;-72
2022/08/04 05:56:55;;;;;;;7.03;2.35;;;;;;;;;;5020074;28;20053;-72
2022/08/04 05:59:24;;;;;;;2.92;1.80;;;;;;;;;;5019865;28;20423;-72
2022/08/04 06:01:54;;;;;;;4.63;2.28;;;;;;;;;;5020121;28;20399;-71
2022/08/04 06:04:30;;;;;;;4.18;2.78;;;;;;;;;;5036743;28;20055;-73
2022/08/04 06:06:57;;;;;;;2.65;2.15;;;;;;;;;;5037288;28;20053;-71
2022/08/04 06:09:24;;;;;;;2.90;2.08;;;;;;;;;;5068783;28;20049;-72
2022/08/04 06:11:51;;;;;;;2.08;1.70;;;;;;;;;;5035921;28;20488;-72
2022/08/04 06:14:37;;;;;;;4.13;1.63;;;;;;;;;;5052411;28;20056;-71
2022/08/04 06:17:05;;;;;;;6.93;2.05;;;;;;;;;;5052141;28;20500;-73
2022/08/04 06:19:52;;;;;;;1.90;1.75;;;;;;;;;;5052435;28;20053;-73
2022/08/04 06:22:31;;;;;;;2.00;1.60;;;;;;;;;;5044828;28;20336;-74
2022/08/04 06:24:58;;;;;;;3.13;1.67;;;;;;;;;;5017870;28;20044;-75
2022/08/04 06:27:25;;;;;;;10.68;1.90;;;;;;;;;;5018550;28;20041;-73
2022/08/04 06:29:52;;;;;;;3.33;1.63;;;;;;;;;;5035351;28;20053;-73
2022/08/04 06:32:46;;;;;;;2.20;1.67;;;;;;;;;;5051374;28;20071;-72
2022/08/04 06:35:16;;;;;;;2.78;1.83;;;;;;;;;;5025628;28;20044;-69
2022/08/04 06:37:45;;;;;;;1.52;1.40;;;;;;;;;;5018384;28;20099;-70
2022/08/04 06:40:13;;;;;;;3.35;1.50;;;;;;;;;;5034587;28;20063;-69
2022/08/04 06:42:55;;;;;;;6.07;1.70;;;;;;;;;;5037831;28;20080;-69
2022/08/04 06:45:22;;;;;;;3.00;1.60;;;;;;;;;;5034966;28;20478;-69
2022/08/04 06:47:49;;;;;;;3.45;1.50;;;;;;;;;;5050909;28;20056;-69
2022/08/04 06:50:16;;;;;;;5.80;2.13;;;;;;;;;;5051213;28;20056;-69
2022/08/04 06:53:03;;;;;;;5.72;2.17;;;;;;;;;;5050917;28;20053;-69
2022/08/04 06:55:30;;;;;;;6.60;4.00;;;;;;;;;;5033423;28;20476;-69
2022/08/04 06:57:57;;;;;;;3.97;1.73;;;;;;;;;;5032229;28;20136;-69
2022/08/04 07:00:28;;;;;;;4.68;1.88;;;;;;;;;;5028002;28;20515;-71
2022/08/04 07:02:55;;;;;;;3.45;2.15;;;;;;;;;;4938630;28;20159;-70
2022/08/04 07:05:22;;;;;;;5.18;1.80;;;;;;;;;;5046647;28;20090;-71
2022/08/04 07:07:48;;;;;;;3.33;1.95;;;;;;;;;;5048781;28;20057;-70
2022/08/04 07:10:28;;;;;;;2.88;1.80;;;;;;;;;;5049420;28;20120;-70
2022/08/04 07:12:58;;;;;;;2.63;1.60;;;;;;;;;;4987979;28;20064;-70
2022/08/04 07:15:25;;;;;;;2.17;1.70;;;;;;;;;;5043432;28;20049;-70
2022/08/04 07:17:53;;;;;;;2.70;1.60;;;;;;;;;;5051881;28;20397;-70
2022/08/04 07:20:20;;;;;;;2.55;1.50;;;;;;;;;;5050294;28;20049;-70
2022/08/04 07:23:02;;;;;;;1.98;1.50;;;;;;;;;;5004508;28;20053;-70
2022/08/04 07:25:29;;;;;;;2.00;1.80;;;;;;;;;;5061591;28;20052;-70
2022/08/04 07:28:15;;;;;;;2.80;2.00;;;;;;;;;;5016845;28;20095;-69
2022/08/04 07:30:43;;;;;;;3.40;1.60;;;;;;;;;;5048471;28;20049;-68
2022/08/04 07:33:10;;;;;;;3.38;2.20;;;;;;;;;;5013981;28;20093;-68
2022/08/04 07:35:37;;;;;;;3.33;1.95;;;;;;;;;;5007754;28;20430;-68
2022/08/04 07:38:23;;;;;;;1.95;1.75;;;;;;;;;;5064740;28;20045;-68
2022/08/04 07:40:53;;;;;;;3.35;1.75;;;;;;;;;;5053136;28;20048;-68
2022/08/04 07:43:20;;;;;;;5.05;1.98;;;;;;;;;;5017875;28;20045;-68
2022/08/04 07:45:47;;;;;;;4.10;1.90;;;;;;;;;;5017927;28;20053;-68
2022/08/04 07:48:14;;;;;;;3.80;1.80;;;;;;;;;;5014275;28;20053;-68
2022/08/04 07:50:44;;;;;;;5.13;2.17;;;;;;;;;;5023900;28;20041;-70
2022/08/04 07:53:11;;;;;;;2.75;1.83;;;;;;;;;;5025258;28;20049;-68
2022/08/04 07:55:58;;;;;;;2.30;1.55;;;;;;;;;;5032165;28;20497;-69
2022/08/04 07:58:26;;;;;;;3.00;2.05;;;;;;;;;;5031585;28;20052;-67
2022/08/04 08:00:56;;;;;;;2.40;1.40;;;;;;;;;;5035982;28;20048;-67
2022/08/04 08:03:23;;;;;;;4.88;1.60;;;;;;;;;;5050497;28;20588;-69
2022/08/04 08:05:50;;;;;;;3.75;1.55;;;;;;;;;;5051651;28;20076;-67
2022/08/04 08:08:38;;;;;;;5.32;1.70;;;;;;;;;;5029987;28;20052;-67
2022/08/04 08:11:06;;;;;;;3.20;2.20;;;;;;;;;;5014834;28;20057;-68
2022/08/04 08:13:33;;;;;;;5.07;3.63;;;;;;;;;;5032760;28;20063;-68
2022/08/04 08:16:00;;;;;;;3.28;1.77;;;;;;;;;;5049076;28;20132;-68
2022/08/04 08:18:26;;;;;;;3.58;1.90;;;;;;;;;;5043786;28;20049;-69
2022/08/04 08:20:54;;;;;;;3.15;1.58;;;;;;;;;;5046565;28;20053;-69
2022/08/04 08:23:20;;;;;;;4.45;2.10;;;;;;;;;;5029336;28;20060;-69
2022/08/04 08:25:48;;;;;;;2.25;1.60;;;;;;;;;;5012202;28;20054;-69
2022/08/04 08:28:15;;;;;;;4.47;1.65;;;;;;;;;;5011199;28;20504;-66
2022/08/04 08:30:42;;;;;;;1.80;1.42;;;;;;;;;;5026530;28;20041;-67
2022/08/04 08:33:11;;;;;;;4.43;1.80;;;;;;;;;;5031407;28;20099;-68
2022/08/04 08:35:51;;;;;;;3.13;1.88;;;;;;;;;;5022323;28;20041;-67
2022/08/04 08:38:47;;;;;;;3.80;1.23;;;;;;;;;;5014867;28;20068;-68
2022/08/04 08:41:41;;;;;;;2.53;1.63;;;;;;;;;;5024428;28;20056;-68
2022/08/04 08:44:24;;;;;;;1.85;1.30;;;;;;;;;;5029035;28;20185;-66
2022/08/04 08:47:28;;;;;;;5.13;1.27;;;;;;;;;;5025680;28;20053;-66
2022/08/04 08:50:36;;;;;;;2.00;1.60;;;;;;;;;;5026394;28;20050;-66
2022/08/04 08:53:22;;;;;;;2.47;1.52;;;;;;;;;;5028816;28;20049;-68
2022/08/04 08:55:49;;;;;;;3.10;1.55;;;;;;;;;;5026950;28;20058;-68
2022/08/04 08:58:25;;;;;;;4.72;2.10;;;;;;;;;;5029043;28;20064;-66
2022/08/04 09:01:10;;;;;;;1.73;1.63;;;;;;;;;;5028805;28;20053;-67
2022/08/04 09:03:55;;;;;;;1.60;1.20;;;;;;;;;;5029439;28;20072;-66
2022/08/04 09:06:36;;;;;;;2.25;1.40;;;;;;;;;;5028361;28;20057;-66
2022/08/04 09:09:24;;;;;;;1.48;1.35;;;;;;;;;;5026972;28;20053;-66
2022/08/04 09:12:46;;;;;;;1.42;1.33;;;;;;;;;;5027405;28;20493;-68
2022/08/04 09:15:48;;;;;;;2.03;1.30;;;;;;;;;;4990960;28;20042;-68
2022/08/04 09:18:33;;;;;;;1.30;1.20;;;;;;;;;;5019641;28;20073;-71
2022/08/04 09:21:05;;;;;;;1.55;1.45;;;;;;;;;;5011701;28;20045;-73
2022/08/04 09:24:11;;;;;;;2.28;1.50;;;;;;;;;;5023806;28;20051;-71
2022/08/04 09:27:07;;;;;;;3.58;1.20;;;;;;;;;;5022676;28;20057;-72
2022/08/04 09:29:34;;;;;;;1.42;1.17;;;;;;;;;;5009729;28;20067;-71
2022/08/04 09:32:16;;;;;;;2.53;1.60;;;;;;;;;;5030414;28;20076;-68
2022/08/04 09:35:21;;;;;;;1.70;1.42;;;;;;;;;;5028155;28;20140;-67
2022/08/04 09:37:54;;;;;;;1.80;1.70;;;;;;;;;;5015009;28;20057;-68
2022/08/04 09:40:47;;;;;;;2.97;2.22;;;;;;;;;;5023838;28;20511;-67
2022/08/04 09:43:28;;;;;;;4.20;1.70;;;;;;;;;;5029393;28;20057;-69
2022/08/04 09:46:52;;;;;;;4.82;2.60;;;;;;;;;;5027594;28;20413;-67
2022/08/04 09:49:35;;;;;;;2.45;1.75;;;;;;;;;;4969898;28;20050;-66
2022/08/04 09:52:30;;;;;;;2.15;1.40;;;;;;;;;;5006557;28;20050;-66
2022/08/04 09:55:01;;;;;;;3.15;1.65;;;;;;;;;;5016170;28;20046;-67
2022/08/04 09:57:33;;;;;;;1.55;1.40;;;;;;;;;;5026196;28;20049;-68
2022/08/04 10:00:03;;;;;;;2.72;1.50;;;;;;;;;;5026127;28;20061;-67
2022/08/04 10:02:33;;;;;;;2.83;1.77;;;;;;;;;;5024505;28;20457;-67
2022/08/04 10:05:02;;;;;;;1.50;1.40;;;;;;;;;;5022817;28;20060;-67
2022/08/04 10:07:47;;;;;;;2.42;1.40;;;;;;;;;;5022919;28;20052;-67
2022/08/04 10:11:00;;;;;;;1.50;1.40;;;;;;;;;;5023757;28;20057;-66
2022/08/04 10:13:32;;;;;;;1.52;1.23;;;;;;;;;;5022578;28;20054;-68
2022/08/04 10:16:36;;;;;;;3.40;2.05;;;;;;;;;;5025554;28;20061;-67
2022/08/04 10:19:12;;;;;;;3.25;1.80;;;;;;;;;;5026107;28;20085;-67
2022/08/04 10:22:04;;;;;;;2.75;1.30;;;;;;;;;;5025076;28;20072;-67
2022/08/04 10:25:12;;;;;;;2.55;2.20;;;;;;;;;;5022027;28;20053;-67
2022/08/04 10:28:02;;;;;;;1.70;1.48;;;;;;;;;;5048131;28;20056;-67
2022/08/04 10:30:30;;;;;;;2.63;1.40;;;;;;;;;;5018218;28;20045;-67
2022/08/04 10:33:08;;;;;;;2.60;1.73;;;;;;;;;;5020789;28;20054;-67
2022/08/04 10:35:39;;;;;;;3.60;1.60;;;;;;;;;;5006027;28;20045;-68
2022/08/04 10:38:28;;;;;;;3.05;1.77;;;;;;;;;;5004290;28;20076;-68
2022/08/04 10:40:59;;;;;;;3.08;1.60;;;;;;;;;;5023451;28;20045;-68
2022/08/04 10:43:25;;;;;;;2.80;1.75;;;;;;;;;;5023424;28;20045;-67
2022/08/04 10:46:31;;;;;;;1.48;1.38;;;;;;;;;;5026241;28;20052;-67
2022/08/04 10:49:06;;;;;;;1.60;1.50;;;;;;;;;;5040920;28;20041;-71
2022/08/04 10:51:46;;;;;;;2.00;1.52;;;;;;;;;;5027347;28;20068;-69
2022/08/04 10:54:46;;;;;;;1.92;1.60;;;;;;;;;;5024213;28;20468;-69
2022/08/04 10:57:19;;;;;;;3.50;1.95;;;;;;;;;;5025522;28;20045;-69
2022/08/04 10:59:57;;;;;;;2.08;1.50;;;;;;;;;;5038023;28;20137;-69
2022/08/04 11:02:36;;;;;;;1.95;1.67;;;;;;;;;;5026179;28;20063;-70
2022/08/04 11:05:26;;;;;;;1.60;1.48;;;;;;;;;;5000036;28;20064;-68
2022/08/04 11:07:59;;;;;;;1.92;1.50;;;;;;;;;;5027485;28;20049;-68
2022/08/04 11:10:28;;;;;;;1.80;1.70;;;;;;;;;;4960398;28;20060;-68
2022/08/04 11:13:02;;;;;;;5.53;1.60;;;;;;;;;;4984960;28;20398;-68
2022/08/04 11:15:41;;;;;;;1.45;1.35;;;;;;;;;;5023565;28;20095;-69
2022/08/04 11:18:14;;;;;;;4.10;1.95;;;;;;;;;;4982052;28;20072;-69
2022/08/04 11:20:49;;;;;;;2.03;1.50;;;;;;;;;;5010500;28;20111;-68
2022/08/04 11:23:17;;;;;;;2.78;1.30;;;;;;;;;;4983955;28;20044;-68
2022/08/04 11:25:58;;;;;;;1.58;1.42;;;;;;;;;;5027993;28;20056;-69
2022/08/04 11:28:52;;;;;;;1.43;0.97;;;;;;;;;;5008546;28;20496;-68
2022/08/04 11:31:35;;;;;;;1.88;1.60;;;;;;;;;;5028388;28;20292;-69
2022/08/04 11:34:14;;;;;;;2.17;1.80;;;;;;;;;;5027005;28;20051;-69
2022/08/04 11:37:09;;;;;;;1.75;1.58;;;;;;;;;;5028139;28;20045;-69
2022/08/04 11:39:51;;;;;;;2.25;1.50;;;;;;;;;;4989420;28;20057;-68
2022/08/04 11:42:24;;;;;;;4.03;1.77;;;;;;;;;;5029177;28;20115;-69
2022/08/04 11:45:14;;;;;;;2.20;1.48;;;;;;;;;;5022707;28;20057;-69
2022/08/04 11:48:10;;;;;;;3.67;1.33;;;;;;;;;;5027222;28;20061;-69
2022/08/04 11:50:44;;;;;;;3.35;1.50;;;;;;;;;;5025912;28;20056;-69
2022/08/04 11:53:19;;;;;;;1.73;1.40;;;;;;;;;;5024966;28;20104;-69
2022/08/04 11:55:49;;;;;;;1.50;1.40;;;;;;;;;;4991217;28;20060;-68
2022/08/04 11:58:35;;;;;;;2.70;1.60;;;;;;;;;;5043336;28;20474;-68
2022/08/04 12:01:18;;;;;;;2.65;1.40;;;;;;;;;;5008999;28;20111;-68
2022/08/04 12:04:02;;;;;;;1.98;1.58;;;;;;;;;;5026699;28;20045;-69
2022/08/04 12:06:56;;;;;;;4.10;1.40;;;;;;;;;;5027262;28;20057;-69
2022/08/04 12:09:58;;;;;;;;;;;;;;;;;;5026730;28;20045;-68
2022/08/04 12:12:31;;;;;;;;;;;;;;;;;;5025069;28;19921;-69
2022/08/04 12:15:35;;;;;;;1.67;1.58;;;;;;;;;;5055306;28;19943;-68
2022/08/04 12:18:09;;;;;;;3.08;1.50;;;;;;;;;;5022588;28;20057;-69
2022/08/04 12:20:47;;;;;;;1.50;1.40;;;;;;;;;;5021954;28;20057;-68
2022/08/04 12:23:22;;;;;;;3.22;1.27;;;;;;;;;;5037594;28;20058;-69
2022/08/04 12:25:50;;;;;;;1.50;1.33;;;;;;;;;;5024259;28;20412;-68
2022/08/04 12:28:31;;;;;;;2.00;1.42;;;;;;;;;;5008655;28;20053;-68
2022/08/04 12:31:24;;;;;;;1.50;1.38;;;;;;;;;;5026894;28;20084;-68
2022/08/04 12:33:53;;;;;;;2.92;1.70;;;;;;;;;;5024114;28;20067;-69
2022/08/04 12:36:55;;;;;;;2.58;1.50;;;;;;;;;;5025464;28;20100;-69
2022/08/04 12:39:21;;;;;;;1.40;1.30;;;;;;;;;;5043777;28;20073;-69
2022/08/04 12:42:16;;;;;;;1.80;1.48;;;;;;;;;;5024722;28;20424;-68
2022/08/04 12:44:50;;;;;;;1.98;1.40;;;;;;;;;;5028450;28;20151;-68
2022/08/04 12:47:16;;;;;;;2.63;1.77;;;;;;;;;;5025439;28;20417;-68
2022/08/04 12:49:57;;;;;;;1.85;1.23;;;;;;;;;;5030635;28;20057;-68
2022/08/04 12:52:27;;;;;;;1.38;1.27;;;;;;;;;;5024874;28;20488;-69
2022/08/04 12:55:13;;;;;;;2.58;1.30;;;;;;;;;;5030259;28;20045;-69
2022/08/04 12:57:40;;;;;;;2.95;1.40;;;;;;;;;;5040073;28;20050;-69
2022/08/04 13:00:08;;;;;;;2.03;1.60;;;;;;;;;;5007802;28;20390;-68
2022/08/04 13:02:42;;;;;;;1.40;1.30;;;;;;;;;;5026106;28;20127;-68
2022/08/04 13:05:10;;;;;;;1.35;1.25;;;;;;;;;;5027793;28;20053;-69
2022/08/04 13:07:49;;;;;;;1.50;1.40;;;;;;;;;;5045631;28;20046;-68
2022/08/04 13:10:17;;;;;;;1.58;1.48;;;;;;;;;;5010257;28;20052;-69
2022/08/04 13:12:54;;;;;;;1.80;1.70;;;;;;;;;;5022637;28;20488;-69
2022/08/04 13:15:22;;;;;;;2.88;1.50;;;;;;;;;;5029756;28;20045;-68
2022/08/04 13:17:57;;;;;;;2.75;1.42;;;;;;;;;;5017337;28;20072;-70
2022/08/04 13:20:27;;;;;;;1.92;1.30;;;;;;;;;;5025656;28;20050;-71
2022/08/04 13:23:24;;;;;;;2.47;1.45;;;;;;;;;;5029909;28;20076;-76
2022/08/04 13:25:52;;;;;;;1.98;1.30;;;;;;;;;;5055917;28;20077;-75
2022/08/04 13:28:49;;;;;;;1.80;1.33;;;;;;;;;;5014669;28;20042;-75
2022/08/04 13:31:42;;;;;;;2.13;1.95;;;;;;;;;;5024731;28;20099;-76
2022/08/04 13:34:19;;;;;;;2.90;2.60;;;;;;;;;;5023138;28;20049;-75
2022/08/04 13:36:46;;;;;;;1.77;1.67;;;;;;;;;;5011422;28;20566;-75
2022/08/04 13:39:19;;;;;;;2.65;1.42;;;;;;;;;;5027297;28;20052;-75
2022/08/04 13:41:50;;;;;;;3.53;2.28;;;;;;;;;;5038560;28;20056;-76
2022/08/04 13:44:31;;;;;;;3.42;2.20;;;;;;;;;;5005448;28;20413;-75
2022/08/04 13:46:59;;;;;;;2.55;1.67;;;;;;;;;;5028272;28;20046;-72
2022/08/04 13:49:30;;;;;;;2.47;2.25;;;;;;;;;;5025013;28;20050;-76
2022/08/04 13:52:17;;;;;;;2.03;1.50;;;;;;;;;;5027553;28;20053;-73
2022/08/04 13:54:45;;;;;;;1.50;1.40;;;;;;;;;;4999462;28;20088;-74
2022/08/04 13:57:22;;;;;;;3.22;2.03;;;;;;;;;;5008857;28;20108;-71
2022/08/04 13:59:56;;;;;;;1.30;1.20;;;;;;;;;;5032595;23;20069;-74
2022/08/04 14:02:57;;;;;;;1.60;1.50;;;;;;;;;;4987729;28;20081;-76
2022/08/04 14:05:26;;;;;;;7.20;4.03;;;;;;;;;;5024307;28;20132;-74
2022/08/04 14:08:12;;;;;;;3.53;2.60;;;;;;;;;;5005157;28;20136;-74
2022/08/04 14:10:40;;;;;;;1.58;1.48;;;;;;;;;;4995163;28;20092;-73
2022/08/04 14:13:07;;;;;;;2.22;1.98;;;;;;;;;;5023937;28;20168;-70
2022/08/04 14:15:36;;;;;;;4.38;2.42;;;;;;;;;;5017570;28;20108;-70
2022/08/04 14:18:25;;;;;;;1.27;1.17;;;;;;;;;;5023091;28;20049;-71
2022/08/04 14:21:09;;;;;;;14.60;11.05;;;;;;;;;;5025416;28;20088;-74
2022/08/04 14:23:45;;;;;;;2.75;1.85;;;;;;;;;;5023874;28;20071;-71
2022/08/04 14:26:13;;;;;;;63.47;44.55;;;;;;;;;;5026682;28;20100;-70
2022/08/04 14:28:40;;;;;;;2.20;2.08;;;;;;;;;;5019169;28;20492;-70
2022/08/04 14:31:27;;;;;;;3.45;1.70;;;;;;;;;;5022746;28;20464;-70
2022/08/04 14:33:56;;;;;;;3.55;1.80;;;;;;;;;;5018595;28;20504;-73
2022/08/04 14:36:40;;;;;;;2.83;1.45;;;;;;;;;;5022903;28;20081;-72
2022/08/04 14:39:43;;;;;;;1.83;1.33;;;;;;;;;;5023640;28;20048;-69
2022/08/04 14:42:45;;;;;;;1.70;1.60;;;;;;;;;;5020737;28;20057;-69
2022/08/04 14:45:34;;;;;;;;;;;;;;;;;;5025091;28;20056;-70
2022/08/04 14:48:06;;;;;;;2.83;2.00;;;;;;;;;;5026408;28;20047;-70
2022/08/04 14:50:38;;;;;;;2.00;1.40;;;;;;;;;;5023047;28;20614;-70
2022/08/04 14:53:20;;;;;;;2.50;1.58;;;;;;;;;;5020598;28;20419;-70
2022/08/04 14:55:53;;;;;;;2.25;1.45;;;;;;;;;;5020763;28;20139;-70
2022/08/04 14:58:26;;;;;;;2.55;1.42;;;;;;;;;;5017525;28;20505;-70
2022/08/04 15:01:05;;;;;;;2.30;2.08;;;;;;;;;;5022401;28;20045;-70
2022/08/04 15:03:42;;;;;;;2.42;1.52;;;;;;;;;;5021839;28;20049;-70
2022/08/04 15:06:21;;;;;;;1.80;1.65;;;;;;;;;;5027827;28;20049;-69
2022/08/04 15:08:50;;;;;;;1.60;1.50;;;;;;;;;;5019710;28;20057;-72
2022/08/04 15:11:22;;;;;;;1.95;1.85;;;;;;;;;;5021413;28;20053;-75
2022/08/04 15:13:53;;;;;;;2.92;1.70;;;;;;;;;;5010471;28;20116;-71
2022/08/04 15:16:20;;;;;;;2.15;1.65;;;;;;;;;;5021504;28;20052;-72
2022/08/04 15:18:47;;;;;;;1.90;1.40;;;;;;;;;;5022184;28;20072;-70
2022/08/04 15:21:15;;;;;;;1.60;1.50;;;;;;;;;;5025277;28;20103;-72
2022/08/04 15:23:42;;;;;;;3.15;1.55;;;;;;;;;;5027240;28;20049;-70
2022/08/04 15:26:12;;;;;;;1.73;1.42;;;;;;;;;;5020640;28;20060;-70
2022/08/04 15:28:41;;;;;;;1.23;1.23;;;;;;;;;;5022626;28;20522;-72
2022/08/04 15:31:08;;;;;;;1.77;1.65;;;;;;;;;;5025011;28;20053;-69
2022/08/04 15:33:55;;;;;;;3.95;3.38;;;;;;;;;;5011972;28;20140;-71
2022/08/04 15:36:36;;;;;;;2.78;2.10;;;;;;;;;;5020902;28;20505;-66
2022/08/04 15:39:15;;;;;;;3.73;3.07;;;;;;;;;;5017321;28;20056;-68
2022/08/04 15:42:01;;;;;;;1.60;1.50;;;;;;;;;;5016270;28;20370;-73
2022/08/04 15:44:46;;;;;;;1.83;1.73;;;;;;;;;;5021673;28;20068;-69
2022/08/04 15:47:14;;;;;;;2.22;1.27;;;;;;;;;;5025400;28;20053;-75
2022/08/04 15:49:42;;;;;;;3.47;1.60;;;;;;;;;;5023859;28;20152;-75
2022/08/04 15:52:20;;;;;;;4.65;1.70;;;;;;;;;;5026755;28;20365;-77
2022/08/04 15:54:47;;;;;;;1.70;1.60;;;;;;;;;;5030010;28;20054;-69